sensor_id;sensor_type;location;lat;lon;timestamp;pressure;altitude;pressure_sealevel;temperature;humidity
35798;BME280;21918;49.940;7.774;2022-08-11T00:02:05;99297.63;;;26.59;32.91
35798;BME280;21918;49.940;7.774;2022-08-11T00:04:34;99295.16;;;26.64;32.98
35798;BME280;21918;49.940;7.774;2022-08-11T00:07:04;99296.31;;;26.67;32.86
35798;BME280;21918;49.940;7.774;2022-08-11T00:09:50;99290.63;;;26.67;32.66
35798;BME280;21918;49.940;7.774;2022-08-11T00:12:18;99292.84;;;26.82;32.74
35798;BME280;21918;49.940;7.774;2022-08-11T00:14:45;99285.13;;;26.83;32.46
35798;BME280;21918;49.940;7.774;2022-08-11T00:17:26;99292.50;;;26.80;32.56
35798;BME280;21918;49.940;7.774;2022-08-11T00:20:03;99290.97;;;26.72;32.44
35798;BME280;21918;49.940;7.774;2022-08-11T00:22:34;99294.22;;;26.71;32.34
35798;BME280;21918;49.940;7.774;2022-08-11T00:25:30;99289.47;;;26.64;32.65
35798;BME280;21918;49.940;7.774;2022-08-11T00:28:03;99289.88;;;26.59;32.49
35798;BME280;21918;49.940;7.774;2022-08-11T00:30:41;99298.50;;;26.52;32.63
35798;BME280;21918;49.940;7.774;2022-08-11T00:33:09;99297.72;;;26.52;32.78
35798;BME280;21918;49.940;7.774;2022-08-11T00:35:36;99297.72;;;26.52;32.99
35798;BME280;21918;49.940;7.774;2022-08-11T00:38:03;99297.66;;;26.55;33.06
35798;BME280;21918;49.940;7.774;2022-08-11T00:40:43;99309.88;;;26.52;33.16
35798;BME280;21918;49.940;7.774;2022-08-11T00:43:19;99306.69;;;26.47;33.08
35798;BME280;21918;49.940;7.774;2022-08-11T00:46:10;99300.34;;;26.36;33.36
35798;BME280;21918;49.940;7.774;2022-08-11T00:48:49;99308.03;;;26.39;33.15
35798;BME280;21918;49.940;7.774;2022-08-11T00:51:49;99304.47;;;26.31;33.35
35798;BME280;21918;49.940;7.774;2022-08-11T00:54:57;99305.38;;;26.21;33.40
35798;BME280;21918;49.940;7.774;2022-08-11T01:01:00;99302.22;;;26.16;33.64
35798;BME280;21918;49.940;7.774;2022-08-11T01:03:58;99298.09;;;26.20;33.57
35798;BME280;21918;49.940;7.774;2022-08-11T01:07:11;99301.53;;;26.05;33.54
35798;BME280;21918;49.940;7.774;2022-08-11T01:10:06;99297.78;;;26.11;33.59
35798;BME280;21918;49.940;7.774;2022-08-11T01:12:45;99297.38;;;26.13;33.45
35798;BME280;21918;49.940;7.774;2022-08-11T01:15:52;99303.94;;;26.06;33.70
35798;BME280;21918;49.940;7.774;2022-08-11T01:19:19;99306.38;;;26.04;33.78
35798;BME280;21918;49.940;7.774;2022-08-11T01:22:12;99309.66;;;26.03;33.42
35798;BME280;21918;49.940;7.774;2022-08-11T01:28:29;99311.31;;;25.97;33.80
35798;BME280;21918;49.940;7.774;2022-08-11T01:31:35;99301.19;;;25.96;33.65
35798;BME280;21918;49.940;7.774;2022-08-11T01:41:14;99305.31;;;25.88;33.76
35798;BME280;21918;49.940;7.774;2022-08-11T01:44:11;99313.84;;;25.88;33.88
35798;BME280;21918;49.940;7.774;2022-08-11T01:47:24;99312.19;;;25.90;33.91
35798;BME280;21918;49.940;7.774;2022-08-11T01:50:16;99313.00;;;25.91;33.72
35798;BME280;21918;49.940;7.774;2022-08-11T01:53:00;99304.13;;;25.85;33.92
35798;BME280;21918;49.940;7.774;2022-08-11T01:55:32;99309.75;;;25.92;33.96
35798;BME280;21918;49.940;7.774;2022-08-11T01:58:09;99309.34;;;25.90;34.05
35798;BME280;21918;49.940;7.774;2022-08-11T02:00:51;99317.13;;;25.83;34.09
35798;BME280;21918;49.940;7.774;2022-08-11T02:03:28;99323.59;;;25.83;33.93
35798;BME280;21918;49.940;7.774;2022-08-11T02:06:10;99321.22;;;25.78;33.89
35798;BME280;21918;49.940;7.774;2022-08-11T02:09:01;99322.03;;;25.79;33.96
35798;BME280;21918;49.940;7.774;2022-08-11T02:11:31;99323.69;;;25.76;33.90
35798;BME280;21918;49.940;7.774;2022-08-11T02:14:06;99318.72;;;25.84;33.86
35798;BME280;21918;49.940;7.774;2022-08-11T02:16:50;99321.28;;;25.71;34.11
35798;BME280;21918;49.940;7.774;2022-08-11T02:19:24;99320.00;;;25.79;34.25
35798;BME280;21918;49.940;7.774;2022-08-11T02:22:16;99314.78;;;25.74;34.05
35798;BME280;21918;49.940;7.774;2022-08-11T02:25:06;99319.66;;;25.74;34.21
35798;BME280;21918;49.940;7.774;2022-08-11T02:27:40;99318.03;;;25.73;34.25
35798;BME280;21918;49.940;7.774;2022-08-11T02:30:13;99318.88;;;25.70;34.23
35798;BME280;21918;49.940;7.774;2022-08-11T02:32:49;99316.06;;;25.66;34.37
35798;BME280;21918;49.940;7.774;2022-08-11T02:35:41;99310.47;;;25.59;34.52
35798;BME280;21918;49.940;7.774;2022-08-11T02:38:24;99317.75;;;25.60;34.11
35798;BME280;21918;49.940;7.774;2022-08-11T02:41:11;99316.19;;;25.52;34.41
35798;BME280;21918;49.940;7.774;2022-08-11T02:44:07;99313.38;;;25.49;34.42
35798;BME280;21918;49.940;7.774;2022-08-11T02:46:49;99318.63;;;25.50;34.10
35798;BME280;21918;49.940;7.774;2022-08-11T02:49:33;99306.88;;;25.52;34.44
35798;BME280;21918;49.940;7.774;2022-08-11T02:52:28;99310.91;;;25.54;34.34
35798;BME280;21918;49.940;7.774;2022-08-11T02:55:17;99315.00;;;25.50;34.40
35798;BME280;21918;49.940;7.774;2022-08-11T02:57:52;99317.81;;;25.53;34.15
35798;BME280;21918;49.940;7.774;2022-08-11T03:00:22;99320.66;;;25.50;34.22
35798;BME280;21918;49.940;7.774;2022-08-11T03:03:20;99316.75;;;25.37;34.56
35798;BME280;21918;49.940;7.774;2022-08-11T03:06:01;99311.84;;;25.41;34.61
35798;BME280;21918;49.940;7.774;2022-08-11T03:08:49;99309.47;;;25.32;34.43
35798;BME280;21918;49.940;7.774;2022-08-11T03:11:43;99310.66;;;25.35;34.52
35798;BME280;21918;49.940;7.774;2022-08-11T03:14:38;99318.00;;;25.32;34.72
35798;BME280;21918;49.940;7.774;2022-08-11T03:17:31;99312.31;;;25.32;34.66
35798;BME280;21918;49.940;7.774;2022-08-11T03:20:07;99313.50;;;25.31;34.64
35798;BME280;21918;49.940;7.774;2022-08-11T03:22:42;99311.50;;;25.28;34.64
35798;BME280;21918;49.940;7.774;2022-08-11T03:25:23;99315.16;;;25.25;34.47
35798;BME280;21918;49.940;7.774;2022-08-11T03:28:01;99318.38;;;25.27;34.69
35798;BME280;21918;49.940;7.774;2022-08-11T03:30:39;99321.22;;;25.27;34.60
35798;BME280;21918;49.940;7.774;2022-08-11T03:33:17;99311.56;;;25.18;34.44
35798;BME280;21918;49.940;7.774;2022-08-11T03:39:08;99314.03;;;25.12;35.06
35798;BME280;21918;49.940;7.774;2022-08-11T03:42:06;99311.53;;;25.21;34.83
35798;BME280;21918;49.940;7.774;2022-08-11T03:44:49;99312.81;;;25.13;34.97
35798;BME280;21918;49.940;7.774;2022-08-11T03:50:33;99306.00;;;25.04;34.87
35798;BME280;21918;49.940;7.774;2022-08-11T03:53:15;99306.38;;;25.09;34.88
35798;BME280;21918;49.940;7.774;2022-08-11T03:56:18;99303.22;;;24.93;35.23
35798;BME280;21918;49.940;7.774;2022-08-11T04:02:17;99306.94;;;24.83;35.00
35798;BME280;21918;49.940;7.774;2022-08-11T04:11:05;99307.34;;;24.82;35.33
35798;BME280;21918;49.940;7.774;2022-08-11T04:14:31;99304.97;;;24.73;35.40
35798;BME280;21918;49.940;7.774;2022-08-11T04:17:45;99309.03;;;24.68;35.30
35798;BME280;21918;49.940;7.774;2022-08-11T04:20:29;99308.25;;;24.68;35.44
35798;BME280;21918;49.940;7.774;2022-08-11T04:23:18;99311.03;;;24.72;35.20
35798;BME280;21918;49.940;7.774;2022-08-11T04:26:20;99305.78;;;24.70;35.41
35798;BME280;21918;49.940;7.774;2022-08-11T04:29:09;99309.84;;;24.69;35.24
35798;BME280;21918;49.940;7.774;2022-08-11T04:31:49;99303.78;;;24.67;35.24
35798;BME280;21918;49.940;7.774;2022-08-11T04:34:40;99313.91;;;24.57;35.69
35798;BME280;21918;49.940;7.774;2022-08-11T04:37:36;99310.31;;;24.53;35.62
35798;BME280;21918;49.940;7.774;2022-08-11T04:40:33;99305.00;;;24.59;35.54
35798;BME280;21918;49.940;7.774;2022-08-11T04:46:32;99303.41;;;24.65;35.56
35798;BME280;21918;49.940;7.774;2022-08-11T04:49:27;99307.03;;;24.65;35.53
35798;BME280;21918;49.940;7.774;2022-08-11T04:52:45;99313.09;;;24.57;35.57
35798;BME280;21918;49.940;7.774;2022-08-11T04:55:57;99310.31;;;24.50;35.92
35798;BME280;21918;49.940;7.774;2022-08-11T04:59:00;99307.47;;;24.64;36.14
35798;BME280;21918;49.940;7.774;2022-08-11T05:02:11;99318.34;;;24.69;35.92
35798;BME280;21918;49.940;7.774;2022-08-11T05:04:58;99315.50;;;24.73;35.58
35798;BME280;21918;49.940;7.774;2022-08-11T05:11:02;99308.63;;;24.70;35.77
35798;BME280;21918;49.940;7.774;2022-08-11T05:13:43;99313.88;;;24.72;35.85
35798;BME280;21918;49.940;7.774;2022-08-11T05:16:32;99316.31;;;24.73;35.93
35798;BME280;21918;49.940;7.774;2022-08-11T05:19:29;99313.47;;;24.73;36.04
35798;BME280;21918;49.940;7.774;2022-08-11T05:22:17;99314.69;;;24.72;36.08
35798;BME280;21918;49.940;7.774;2022-08-11T05:25:06;99317.13;;;24.70;36.20
35798;BME280;21918;49.940;7.774;2022-08-11T05:28:00;99313.50;;;24.70;35.98
35798;BME280;21918;49.940;7.774;2022-08-11T05:30:46;99317.13;;;24.70;36.05
35798;BME280;21918;49.940;7.774;2022-08-11T05:33:36;99314.66;;;24.76;36.11
35798;BME280;21918;49.940;7.774;2022-08-11T05:36:27;99321.97;;;24.73;36.32
35798;BME280;21918;49.940;7.774;2022-08-11T05:39:00;99318.31;;;24.76;36.16
35798;BME280;21918;49.940;7.774;2022-08-11T05:41:46;99316.72;;;24.75;36.30
35798;BME280;21918;49.940;7.774;2022-08-11T05:45:25;99318.34;;;24.65;36.54
35798;BME280;21918;49.940;7.774;2022-08-11T05:47:53;99319.53;;;24.72;36.74
35798;BME280;21918;49.940;7.774;2022-08-11T05:50:39;99315.06;;;24.74;36.82
35798;BME280;21918;49.940;7.774;2022-08-11T05:53:24;99329.22;;;24.74;36.83
35798;BME280;21918;49.940;7.774;2022-08-11T05:56:09;99326.00;;;24.76;36.81
35798;BME280;21918;49.940;7.774;2022-08-11T05:58:48;99321.94;;;24.80;36.55
35798;BME280;21918;49.940;7.774;2022-08-11T06:01:21;99329.22;;;24.81;36.56
35798;BME280;21918;49.940;7.774;2022-08-11T06:03:50;99329.59;;;24.83;36.83
35798;BME280;21918;49.940;7.774;2022-08-11T06:06:39;99327.59;;;24.80;37.06
35798;BME280;21918;49.940;7.774;2022-08-11T06:09:12;99327.19;;;24.82;36.96
35798;BME280;21918;49.940;7.774;2022-08-11T06:11:41;99334.44;;;24.86;36.86
35798;BME280;21918;49.940;7.774;2022-08-11T06:14:09;99327.13;;;24.89;37.14
35798;BME280;21918;49.940;7.774;2022-08-11T06:16:37;99330.75;;;24.93;37.17
35798;BME280;21918;49.940;7.774;2022-08-11T06:19:10;99333.16;;;25.01;37.08
35798;BME280;21918;49.940;7.774;2022-08-11T06:21:43;99331.53;;;25.00;37.17
35798;BME280;21918;49.940;7.774;2022-08-11T06:24:12;99333.53;;;25.07;37.29
35798;BME280;21918;49.940;7.774;2022-08-11T06:26:40;99325.41;;;25.09;37.57
35798;BME280;21918;49.940;7.774;2022-08-11T06:29:12;99334.75;;;25.02;37.50
35798;BME280;21918;49.940;7.774;2022-08-11T06:31:44;99332.31;;;25.04;37.69
35798;BME280;21918;49.940;7.774;2022-08-11T06:34:31;99327.50;;;25.01;37.86
35798;BME280;21918;49.940;7.774;2022-08-11T06:37:12;99331.13;;;25.02;38.17
35798;BME280;21918;49.940;7.774;2022-08-11T06:39:48;99328.28;;;25.02;38.19
35798;BME280;21918;49.940;7.774;2022-08-11T06:42:31;99332.34;;;25.01;38.33
35798;BME280;21918;49.940;7.774;2022-08-11T06:45:06;99323.38;;;25.06;38.46
35798;BME280;21918;49.940;7.774;2022-08-11T06:47:41;99331.47;;;25.07;38.66
35798;BME280;21918;49.940;7.774;2022-08-11T06:50:15;99320.97;;;25.04;38.88
35798;BME280;21918;49.940;7.774;2022-08-11T06:53:03;99324.66;;;25.01;39.06
35798;BME280;21918;49.940;7.774;2022-08-11T06:55:33;99327.50;;;25.01;39.34
35798;BME280;21918;49.940;7.774;2022-08-11T06:58:20;99323.84;;;25.01;39.33
35798;BME280;21918;49.940;7.774;2022-08-11T07:01:07;99318.53;;;25.03;38.88
35798;BME280;21918;49.940;7.774;2022-08-11T07:03:49;99322.97;;;25.11;38.53
35798;BME280;21918;49.940;7.774;2022-08-11T07:06:38;99313.59;;;25.17;38.39
35798;BME280;21918;49.940;7.774;2022-08-11T07:09:32;99326.56;;;25.18;38.56
35798;BME280;21918;49.940;7.774;2022-08-11T07:12:39;99327.31;;;25.26;38.08
35798;BME280;21918;49.940;7.774;2022-08-11T07:15:29;99320.78;;;25.36;37.96
35798;BME280;21918;49.940;7.774;2022-08-11T07:18:13;99316.63;;;25.47;37.45
35798;BME280;21918;49.940;7.774;2022-08-11T07:21:10;99325.50;;;25.53;36.99
35798;BME280;21918;49.940;7.774;2022-08-11T07:23:55;99315.31;;;25.62;36.91
35798;BME280;21918;49.940;7.774;2022-08-11T07:26:48;99325.34;;;25.70;36.45
35798;BME280;21918;49.940;7.774;2022-08-11T07:29:34;99323.63;;;25.80;36.15
35798;BME280;21918;49.940;7.774;2022-08-11T07:32:12;99321.47;;;25.94;35.25
35798;BME280;21918;49.940;7.774;2022-08-11T07:34:45;99314.47;;;26.09;34.95
35798;BME280;21918;49.940;7.774;2022-08-11T07:37:15;99315.13;;;26.20;34.47
35798;BME280;21918;49.940;7.774;2022-08-11T07:39:45;99308.47;;;26.34;34.30
35798;BME280;21918;49.940;7.774;2022-08-11T07:42:17;99307.53;;;26.44;33.93
35798;BME280;21918;49.940;7.774;2022-08-11T07:44:46;99303.75;;;26.54;33.64
35798;BME280;21918;49.940;7.774;2022-08-11T07:47:32;99308.97;;;26.62;33.72
35798;BME280;21918;49.940;7.774;2022-08-11T07:50:18;99307.69;;;26.67;33.21
35798;BME280;21918;49.940;7.774;2022-08-11T07:53:03;99304.75;;;26.74;33.45
35798;BME280;21918;49.940;7.774;2022-08-11T07:55:30;99304.72;;;26.77;33.39
35798;BME280;21918;49.940;7.774;2022-08-11T07:58:00;99303.84;;;26.80;33.13
35798;BME280;21918;49.940;7.774;2022-08-11T08:00:47;99312.38;;;26.80;33.01
35798;BME280;21918;49.940;7.774;2022-08-11T08:03:33;99304.59;;;26.84;33.30
35798;BME280;21918;49.940;7.774;2022-08-11T08:06:18;99310.59;;;26.93;32.70
35798;BME280;21918;49.940;7.774;2022-08-11T08:09:03;99315.78;;;26.98;33.14
35798;BME280;21918;49.940;7.774;2022-08-11T08:11:50;99314.53;;;26.99;32.59
35798;BME280;21918;49.940;7.774;2022-08-11T08:14:36;99311.91;;;27.12;32.93
35798;BME280;21918;49.940;7.774;2022-08-11T08:17:21;99310.69;;;27.13;32.79
35798;BME280;21918;49.940;7.774;2022-08-11T08:20:09;99312.34;;;27.11;32.79
35798;BME280;21918;49.940;7.774;2022-08-11T08:22:37;99309.00;;;27.16;32.83
35798;BME280;21918;49.940;7.774;2022-08-11T08:25:05;99305.66;;;27.24;32.80
35798;BME280;21918;49.940;7.774;2022-08-11T08:27:33;99305.56;;;27.31;32.98
35798;BME280;21918;49.940;7.774;2022-08-11T08:30:03;99307.53;;;27.34;32.84
35798;BME280;21918;49.940;7.774;2022-08-11T08:32:48;99302.72;;;27.31;33.09
35798;BME280;21918;49.940;7.774;2022-08-11T08:35:17;99309.56;;;27.34;33.02
35798;BME280;21918;49.940;7.774;2022-08-11T08:37:44;99296.03;;;27.41;32.53
35798;BME280;21918;49.940;7.774;2022-08-11T08:40:13;99308.91;;;27.49;32.11
35798;BME280;21918;49.940;7.774;2022-08-11T08:42:44;99306.28;;;27.62;31.80
35798;BME280;21918;49.940;7.774;2022-08-11T08:45:13;99295.06;;;27.74;32.15
35798;BME280;21918;49.940;7.774;2022-08-11T08:47:45;99292.41;;;27.87;31.65
35798;BME280;21918;49.940;7.774;2022-08-11T08:50:15;99291.41;;;27.97;31.39
35798;BME280;21918;49.940;7.774;2022-08-11T08:52:47;99284.72;;;28.07;31.69
35798;BME280;21918;49.940;7.774;2022-08-11T08:55:16;99289.91;;;28.12;31.32
35798;BME280;21918;49.940;7.774;2022-08-11T08:57:45;99289.03;;;28.15;31.41
35798;BME280;21918;49.940;7.774;2022-08-11T09:00:16;99295.03;;;28.20;31.35
35798;BME280;21918;49.940;7.774;2022-08-11T09:02:43;99293.69;;;28.25;31.22
35798;BME280;21918;49.940;7.774;2022-08-11T09:05:10;99302.09;;;28.32;31.19
35798;BME280;21918;49.940;7.774;2022-08-11T09:07:38;99301.19;;;28.38;30.67
35798;BME280;21918;49.940;7.774;2022-08-11T09:10:07;99301.91;;;28.42;30.72
35798;BME280;21918;49.940;7.774;2022-08-11T09:12:34;99293.63;;;28.51;30.65
35798;BME280;21918;49.940;7.774;2022-08-11T09:15:04;99297.09;;;28.59;30.33
35798;BME280;21918;49.940;7.774;2022-08-11T09:17:38;99294.56;;;28.64;30.29
35798;BME280;21918;49.940;7.774;2022-08-11T09:20:08;99293.22;;;28.69;30.44
35798;BME280;21918;49.940;7.774;2022-08-11T09:22:42;99291.88;;;28.73;30.47
35798;BME280;21918;49.940;7.774;2022-08-11T09:25:29;99286.03;;;28.80;30.30
35798;BME280;21918;49.940;7.774;2022-08-11T09:28:16;99291.94;;;28.89;30.06
35798;BME280;21918;49.940;7.774;2022-08-11T09:30:45;99292.59;;;28.97;30.07
35798;BME280;21918;49.940;7.774;2022-08-11T09:33:15;99287.91;;;29.06;29.27
35798;BME280;21918;49.940;7.774;2022-08-11T09:35:42;99294.53;;;29.19;29.40
35798;BME280;21918;49.940;7.774;2022-08-11T09:38:13;99288.91;;;29.32;28.94
35798;BME280;21918;49.940;7.774;2022-08-11T09:40:58;99289.13;;;29.41;28.83
35798;BME280;21918;49.940;7.774;2022-08-11T09:43:26;99291.59;;;29.55;28.66
35798;BME280;21918;49.940;7.774;2022-08-11T09:46:11;99281.19;;;29.65;28.53
35798;BME280;21918;49.940;7.774;2022-08-11T09:48:42;99283.78;;;29.75;28.16
35798;BME280;21918;49.940;7.774;2022-08-11T09:51:10;99286.34;;;29.86;28.19
35798;BME280;21918;49.940;7.774;2022-08-11T09:53:40;99284.97;;;29.90;27.94
35798;BME280;21918;49.940;7.774;2022-08-11T09:56:11;99284.78;;;29.97;28.04
35798;BME280;21918;49.940;7.774;2022-08-11T09:58:57;99283.97;;;30.13;28.10
35798;BME280;21918;49.940;7.774;2022-08-11T10:01:27;99284.50;;;30.24;27.56
35798;BME280;21918;49.940;7.774;2022-08-11T10:03:59;99276.19;;;30.29;27.60
35798;BME280;21918;49.940;7.774;2022-08-11T10:06:28;99275.72;;;30.31;28.15
35798;BME280;21918;49.940;7.774;2022-08-11T10:09:16;99268.78;;;30.44;27.90
35798;BME280;21918;49.940;7.774;2022-08-11T10:11:44;99278.88;;;30.61;27.23
35798;BME280;21918;49.940;7.774;2022-08-11T10:14:11;99280.84;;;30.64;26.82
35798;BME280;21918;49.940;7.774;2022-08-11T10:16:56;99271.63;;;30.73;25.97
35798;BME280;21918;49.940;7.774;2022-08-11T10:19:25;99266.50;;;30.80;25.93
35798;BME280;21918;49.940;7.774;2022-08-11T10:21:53;99266.03;;;30.94;25.92
35798;BME280;21918;49.940;7.774;2022-08-11T10:24:40;99262.41;;;31.19;25.20
35798;BME280;21918;49.940;7.774;2022-08-11T10:27:26;99251.53;;;31.39;25.32
35798;BME280;21918;49.940;7.774;2022-08-11T10:29:54;99254.25;;;31.55;25.04
35798;BME280;21918;49.940;7.774;2022-08-11T10:32:38;99251.94;;;31.63;25.63
35798;BME280;21918;49.940;7.774;2022-08-11T10:35:25;99250.91;;;31.82;23.72
35798;BME280;21918;49.940;7.774;2022-08-11T10:37:52;99248.66;;;31.98;24.19
35798;BME280;21918;49.940;7.774;2022-08-11T10:40:21;99251.50;;;32.11;24.33
35798;BME280;21918;49.940;7.774;2022-08-11T10:42:49;99250.41;;;32.17;24.40
35798;BME280;21918;49.940;7.774;2022-08-11T10:45:33;99246.47;;;32.36;23.74
35798;BME280;21918;49.940;7.774;2022-08-11T10:48:18;99260.66;;;32.40;23.29
35798;BME280;21918;49.940;7.774;2022-08-11T10:50:49;99243.78;;;32.42;22.25
35798;BME280;21918;49.940;7.774;2022-08-11T10:53:34;99255.31;;;32.29;22.93
35798;BME280;21918;49.940;7.774;2022-08-11T10:56:19;99248.66;;;32.20;23.16
35798;BME280;21918;49.940;7.774;2022-08-11T10:59:05;99244.69;;;32.17;22.62
35798;BME280;21918;49.940;7.774;2022-08-11T11:01:37;99243.63;;;32.24;22.42
35798;BME280;21918;49.940;7.774;2022-08-11T11:04:12;99231.50;;;32.41;22.03
35798;BME280;21918;49.940;7.774;2022-08-11T11:06:48;99229.25;;;32.58;21.80
35798;BME280;21918;49.940;7.774;2022-08-11T11:09:18;99223.78;;;32.81;22.13
35798;BME280;21918;49.940;7.774;2022-08-11T11:11:50;99221.84;;;32.78;22.14
35798;BME280;21918;49.940;7.774;2022-08-11T11:14:36;99212.81;;;32.58;22.46
35798;BME280;21918;49.940;7.774;2022-08-11T11:17:27;99215.50;;;32.53;22.99
35798;BME280;21918;49.940;7.774;2022-08-11T11:20:15;99212.63;;;32.53;22.60
35798;BME280;21918;49.940;7.774;2022-08-11T11:22:45;99211.16;;;32.48;22.88
35798;BME280;21918;49.940;7.774;2022-08-11T11:28:22;99211.75;;;32.65;22.52
35798;BME280;21918;49.940;7.774;2022-08-11T11:31:05;99212.41;;;32.69;22.10
35798;BME280;21918;49.940;7.774;2022-08-11T11:33:46;99205.06;;;32.68;22.63
35798;BME280;21918;49.940;7.774;2022-08-11T11:36:25;99205.56;;;32.75;22.11
35798;BME280;21918;49.940;7.774;2022-08-11T11:38:55;99202.03;;;32.93;22.53
35798;BME280;21918;49.940;7.774;2022-08-11T11:41:32;99208.13;;;33.04;22.61
35798;BME280;21918;49.940;7.774;2022-08-11T11:44:11;99192.56;;;33.23;22.14
35798;BME280;21918;49.940;7.774;2022-08-11T11:46:38;99199.03;;;33.36;21.78
35798;BME280;21918;49.940;7.774;2022-08-11T11:49:07;99191.69;;;33.44;22.16
35798;BME280;21918;49.940;7.774;2022-08-11T11:51:36;99161.38;;;33.52;21.70
35798;BME280;21918;49.940;7.774;2022-08-11T11:54:04;99188.97;;;33.49;21.79
35798;BME280;21918;49.940;7.774;2022-08-11T11:56:33;99188.81;;;33.44;22.16
35798;BME280;21918;49.940;7.774;2022-08-11T11:59:02;99188.81;;;33.35;21.95
35798;BME280;21918;49.940;7.774;2022-08-11T12:01:47;99184.91;;;33.20;22.63
35798;BME280;21918;49.940;7.774;2022-08-11T12:04:14;99179.16;;;33.20;23.25
35798;BME280;21918;49.940;7.774;2022-08-11T12:06:44;99167.19;;;33.21;22.46
35798;BME280;21918;49.940;7.774;2022-08-11T12:09:14;99171.66;;;33.22;22.97
35798;BME280;21918;49.940;7.774;2022-08-11T12:11:43;99171.53;;;33.26;22.93
35798;BME280;21918;49.940;7.774;2022-08-11T12:14:28;99163.38;;;33.24;23.25
35798;BME280;21918;49.940;7.774;2022-08-11T12:16:55;99164.84;;;33.29;23.05
35798;BME280;21918;49.940;7.774;2022-08-11T12:19:24;99170.56;;;33.29;22.74
35798;BME280;21918;49.940;7.774;2022-08-11T12:21:54;99153.34;;;33.29;23.46
35798;BME280;21918;49.940;7.774;2022-08-11T12:25:19;99163.81;;;33.14;23.23
35798;BME280;21918;49.940;7.774;2022-08-11T12:28:06;99161.25;;;33.07;23.19
35798;BME280;21918;49.940;7.774;2022-08-11T12:30:33;99152.81;;;33.03;23.52
35798;BME280;21918;49.940;7.774;2022-08-11T12:33:00;99162.69;;;33.11;24.08
35798;BME280;21918;49.940;7.774;2022-08-11T12:35:28;99144.88;;;33.16;23.00
35798;BME280;21918;49.940;7.774;2022-08-11T12:37:56;99140.38;;;33.15;23.03
35798;BME280;21918;49.940;7.774;2022-08-11T12:40:27;99137.38;;;33.19;23.04
35798;BME280;21918;49.940;7.774;2022-08-11T12:43:15;99133.22;;;33.20;23.61
35798;BME280;21918;49.940;7.774;2022-08-11T12:46:11;99130.03;;;33.27;23.53
35798;BME280;21918;49.940;7.774;2022-08-11T12:48:44;99129.63;;;33.37;23.39
35798;BME280;21918;49.940;7.774;2022-08-11T12:51:33;99139.75;;;33.29;23.76
35798;BME280;21918;49.940;7.774;2022-08-11T12:54:23;99132.78;;;33.30;23.79
35798;BME280;21918;49.940;7.774;2022-08-11T12:56:58;99125.63;;;33.44;23.36
35798;BME280;21918;49.940;7.774;2022-08-11T12:59:43;99128.81;;;33.55;23.03
35798;BME280;21918;49.940;7.774;2022-08-11T13:02:28;99122.75;;;33.53;22.59
35798;BME280;21918;49.940;7.774;2022-08-11T13:05:14;99114.31;;;33.67;21.82
35798;BME280;21918;49.940;7.774;2022-08-11T13:07:51;99111.41;;;33.77;22.25
35798;BME280;21918;49.940;7.774;2022-08-11T13:10:25;99109.34;;;33.95;22.35
35798;BME280;21918;49.940;7.774;2022-08-11T13:13:22;99108.25;;;34.02;22.56
35798;BME280;21918;49.940;7.774;2022-08-11T13:15:52;99106.94;;;34.12;22.06
35798;BME280;21918;49.940;7.774;2022-08-11T13:18:26;99097.03;;;34.13;21.52
35798;BME280;21918;49.940;7.774;2022-08-11T13:21:02;99103.91;;;34.06;21.44
35798;BME280;21918;49.940;7.774;2022-08-11T13:23:32;99105.50;;;33.98;21.90
35798;BME280;21918;49.940;7.774;2022-08-11T13:26:00;99094.81;;;34.08;21.10
35798;BME280;21918;49.940;7.774;2022-08-11T13:28:29;99092.09;;;34.13;21.52
35798;BME280;21918;49.940;7.774;2022-08-11T13:30:57;99087.59;;;34.12;21.52
35798;BME280;21918;49.940;7.774;2022-08-11T13:33:46;99095.91;;;34.10;21.52
35798;BME280;21918;49.940;7.774;2022-08-11T13:36:18;99095.91;;;34.10;21.38
35798;BME280;21918;49.940;7.774;2022-08-11T13:38:46;99094.63;;;34.20;20.25
35798;BME280;21918;49.940;7.774;2022-08-11T13:41:14;99087.56;;;34.21;20.96
35798;BME280;21918;49.940;7.774;2022-08-11T13:44:03;99081.00;;;34.21;20.98
35798;BME280;21918;49.940;7.774;2022-08-11T13:46:32;99081.34;;;34.23;20.89
35798;BME280;21918;49.940;7.774;2022-08-11T13:49:02;99079.72;;;34.31;20.61
35798;BME280;21918;49.940;7.774;2022-08-11T13:51:32;99078.59;;;34.28;20.99
35798;BME280;21918;49.940;7.774;2022-08-11T13:54:02;99067.78;;;34.23;21.00
35798;BME280;21918;49.940;7.774;2022-08-11T13:56:31;99078.31;;;34.17;21.59
35798;BME280;21918;49.940;7.774;2022-08-11T13:59:01;99070.03;;;34.10;21.20
35798;BME280;21918;49.940;7.774;2022-08-11T14:01:34;99064.50;;;33.98;21.65
35798;BME280;21918;49.940;7.774;2022-08-11T14:04:08;99065.94;;;33.93;21.85
35798;BME280;21918;49.940;7.774;2022-08-11T14:06:37;99056.97;;;33.91;22.09
35798;BME280;21918;49.940;7.774;2022-08-11T14:09:12;99050.59;;;33.87;22.20
35798;BME280;21918;49.940;7.774;2022-08-11T14:11:42;99050.72;;;33.84;21.89
35798;BME280;21918;49.940;7.774;2022-08-11T14:14:31;99058.91;;;33.76;22.34
35798;BME280;21918;49.940;7.774;2022-08-11T14:17:04;99055.06;;;33.79;22.09
35798;BME280;21918;49.940;7.774;2022-08-11T14:19:35;99033.69;;;33.89;22.83
35798;BME280;21918;49.940;7.774;2022-08-11T14:22:06;99033.31;;;34.05;21.12
35798;BME280;21918;49.940;7.774;2022-08-11T14:24:33;99035.00;;;34.21;21.35
35798;BME280;21918;49.940;7.774;2022-08-11T14:27:10;99030.88;;;34.22;21.43
35798;BME280;21918;49.940;7.774;2022-08-11T14:29:59;99040.81;;;34.12;21.53
35798;BME280;21918;49.940;7.774;2022-08-11T14:32:26;99029.44;;;34.17;21.64
35798;BME280;21918;49.940;7.774;2022-08-11T14:34:57;99023.72;;;34.08;21.18
35798;BME280;21918;49.940;7.774;2022-08-11T14:37:27;99015.41;;;34.10;21.12
35798;BME280;21918;49.940;7.774;2022-08-11T14:40:00;99020.50;;;34.15;21.34
35798;BME280;21918;49.940;7.774;2022-08-11T14:42:50;99030.72;;;34.16;21.75
35798;BME280;21918;49.940;7.774;2022-08-11T14:45:47;99018.09;;;34.14;21.63
35798;BME280;21918;49.940;7.774;2022-08-11T14:48:33;99011.72;;;34.10;21.41